THA465 WARR-VTBS
Flight info
| Callsign | THA465 |
|---|---|
| Flight time | N/A |
| Altitude | 38000 |
| Route | LASEM DCT SUMDI M635 VTK B338 VMR B469 VPK M751 VKB M644 RYN TUMGA1C |
| Aircraft | A20N/M-SDE2E3FGHIRWXY/LB1 |
Departure
| Time | 2026-05-08 17:38 |
|---|---|
| Airport | Juanda International Airport (WARR) |
Arrival
| Time | N/A |
|---|---|
| Airport | Suvarnabhumi Airport (VTBS) |
| Time | Latitude | Longitude | Altitude | Speed | Heading |
|---|---|---|---|---|---|
| 2026-05-08 17:03 | -7.37597 | 112.79535 | 18 ft | 0 kts | 11° |
| 2026-05-08 17:23 | -7.37598 | 112.79535 | 18 ft | 1 kts | 11° |
| 2026-05-08 17:23 | -7.37623 | 112.79530 | 20 ft | 4 kts | 11° |
| 2026-05-08 17:23 | -7.37650 | 112.79525 | 20 ft | 4 kts | 11° |
| 2026-05-08 17:24 | -7.37675 | 112.79521 | 21 ft | 3 kts | 2° |
| 2026-05-08 17:24 | -7.37688 | 112.79523 | 22 ft | 2 kts | 317° |
| 2026-05-08 17:24 | -7.37693 | 112.79532 | 20 ft | 2 kts | 282° |
| 2026-05-08 17:24 | -7.37694 | 112.79536 | 19 ft | 2 kts | 279° |
| 2026-05-08 17:25 | -7.37694 | 112.79537 | 19 ft | 2 kts | 278° |
| 2026-05-08 17:25 | -7.37694 | 112.79538 | 19 ft | 0 kts | 278° |
| 2026-05-08 17:29 | -7.37694 | 112.79537 | 18 ft | 2 kts | 278° |
| 2026-05-08 17:29 | -7.37692 | 112.79526 | 18 ft | 1 kts | 278° |
| 2026-05-08 17:29 | -7.37692 | 112.79519 | 18 ft | 3 kts | 277° |
| 2026-05-08 17:30 | -7.37675 | 112.79412 | 18 ft | 28 kts | 281° |
| 2026-05-08 17:30 | -7.37647 | 112.79240 | 19 ft | 0 kts | 280° |
| 2026-05-08 17:30 | -7.37647 | 112.79239 | 19 ft | 0 kts | 280° |
| 2026-05-08 17:30 | -7.37638 | 112.79180 | 18 ft | 11 kts | 277° |
| 2026-05-08 17:31 | -7.37627 | 112.79114 | 18 ft | 9 kts | 278° |
| 2026-05-08 17:31 | -7.37617 | 112.79058 | 19 ft | 7 kts | 279° |
| 2026-05-08 17:31 | -7.37610 | 112.79012 | 18 ft | 6 kts | 278° |
| 2026-05-08 17:31 | -7.37605 | 112.78974 | 18 ft | 5 kts | 278° |
| 2026-05-08 17:32 | -7.37624 | 112.78918 | 18 ft | 13 kts | 211° |
| 2026-05-08 17:32 | -7.37729 | 112.78895 | 19 ft | 18 kts | 189° |
| 2026-05-08 17:32 | -7.37824 | 112.78813 | 18 ft | 23 kts | 275° |
| 2026-05-08 17:32 | -7.37796 | 112.78637 | 18 ft | 28 kts | 278° |
| 2026-05-08 17:33 | -7.37765 | 112.78426 | 18 ft | 33 kts | 280° |
| 2026-05-08 17:33 | -7.37726 | 112.78183 | 18 ft | 37 kts | 279° |
| 2026-05-08 17:33 | -7.37684 | 112.77911 | 18 ft | 41 kts | 280° |
| 2026-05-08 17:33 | -7.37635 | 112.77621 | 18 ft | 29 kts | 279° |
| 2026-05-08 17:34 | -7.37623 | 112.77526 | 17 ft | 12 kts | 278° |
| 2026-05-08 17:34 | -7.37610 | 112.77451 | 17 ft | 10 kts | 277° |
| 2026-05-08 17:34 | -7.37610 | 112.77445 | 17 ft | 0 kts | 275° |
| 2026-05-08 17:35 | -7.37619 | 112.77406 | 18 ft | 13 kts | 242° |
| 2026-05-08 17:36 | -7.37720 | 112.77366 | 17 ft | 19 kts | 165° |
| 2026-05-08 17:36 | -7.37777 | 112.77427 | 18 ft | 0 kts | 96° |
| 2026-05-08 17:37 | -7.37780 | 112.77453 | 18 ft | 22 kts | 96° |
| 2026-05-08 17:38 | -7.37839 | 112.77832 | 20 ft | 87 kts | 101° |
| 2026-05-08 17:38 | -7.37978 | 112.78664 | 22 ft | 153 kts | 99° |
| 2026-05-08 17:38 | -7.38169 | 112.79778 | 453 ft | 165 kts | 97° |
| 2026-05-08 17:38 | -7.38339 | 112.80920 | 1039 ft | 162 kts | 99° |
| 2026-05-08 17:39 | -7.38529 | 112.82079 | 1467 ft | 177 kts | 99° |
| 2026-05-08 17:39 | -7.38749 | 112.83373 | 1723 ft | 198 kts | 97° |
| 2026-05-08 17:39 | -7.38983 | 112.84805 | 1979 ft | 218 kts | 94° |
| 2026-05-08 17:39 | -7.39236 | 112.86416 | 2150 ft | 246 kts | 100° |
| 2026-05-08 17:40 | -7.39551 | 112.88178 | 2538 ft | 260 kts | 100° |
| 2026-05-08 17:40 | -7.39852 | 112.89982 | 3188 ft | 263 kts | 99° |
| 2026-05-08 17:40 | -7.39764 | 112.91797 | 3807 ft | 268 kts | 70° |
| 2026-05-08 17:40 | -7.38679 | 112.93312 | 4404 ft | 273 kts | 36° |
| 2026-05-08 17:41 | -7.36907 | 112.94015 | 4992 ft | 279 kts | 6° |
| 2026-05-08 17:41 | -7.34978 | 112.93849 | 5625 ft | 281 kts | 347° |
| 2026-05-08 17:41 | -7.33090 | 112.93306 | 6259 ft | 283 kts | 343° |
| 2026-05-08 17:41 | -7.31204 | 112.92716 | 6868 ft | 285 kts | 343° |